Ursa Minor — ICGH — position and weather

sailwx.info

Track history (hours):
 
Tides and Currents Weather Stations Pressure Air Temp Water Temp Dewpoint Dewpoint Depression Visibility Wind Speed Wind Dir Waves Ship Positions

Ursa Minor

Last reported at 2014-Nov-27 16:28 UTC. Time now 2014-Nov-29 04:56 UTC.
Position N 40°28' E 014°05'.

Length 205 m; draft 8.4 m.

MMSI: 247082300.

Date/timePositionNaut miles runAvg speedWind from/ knotsBaromVisibWave heightAir tempDewpointWater temp
2014-Nov-27 16:28N 40°28' E 014°05'1213.2
2014-Nov-27 15:33N 40°35' E 013°52'1313.2
2014-Nov-27 14:33N 40°44' E 013°39'23313.0
2014-Nov-26 20:34N 43°31' E 009°59'1313.4
2014-Nov-26 19:33N 43°41' E 009°47'1313.0
2014-Nov-26 18:32N 43°51' E 009°34'1313.5
2014-Nov-26 17:32N 44°01' E 009°22'1313.2
2014-Nov-26 16:32N 44°11' E 009°10'1313.0
2014-Nov-26 15:32N 44°20' E 008°57'6 5.4
2014-Nov-26 14:31N 44°24' E 008°52'0 0.0
2014-Nov-26 13:31N 44°24' E 008°52'0 0.0
2014-Nov-26 11:30N 44°24' E 008°52'0 0.0
2014-Nov-26 10:27N 44°24' E 008°52'0 0.0
2014-Nov-26 09:33N 44°24' E 008°52'0 0.2
2014-Nov-26 08:34N 44°24' E 008°52'1 1.0
2014-Nov-26 07:34N 44°24' E 008°53'10 9.7
2014-Nov-26 06:33N 44°17' E 009°03'1313.4
2014-Nov-26 05:33N 44°07' E 009°15'1313.4
2014-Nov-26 04:34N 43°57' E 009°28'1313.3
2014-Nov-26 03:34N 43°47' E 009°40'1413.6
2014-Nov-26 02:33N 43°36' E 009°50'1312.9
2014-Nov-26 01:33N 43°27' E 010°04'1312.5
2014-Nov-26 00:34N 43°16' E 010°12'19513.0
2014-Nov-25 09:33N 40°57' E 013°17'1413.3
2014-Nov-25 08:32N 40°49' E 013°31'1413.6
2014-Nov-25 07:31N 40°40' E 013°45'1313.5
2014-Nov-25 06:34N 40°32' E 013°58'16212.4
2014-Nov-24 17:29N 38°09' E 015°37'  
2014-Nov-21 07:28N 38°08' E 015°35'1212.1
2014-Nov-21 06:30N 38°19' E 015°40'14913.4
2014-Nov-20 19:26N 40°28' E 014°04'1112.8
2014-Nov-20 18:33N 40°35' E 013°52'1312.9
2014-Nov-20 17:33N 40°44' E 013°39'22412.9
2014-Nov-20 00:10N 43°22' E 010°07'813.2
2014-Nov-19 23:32N 43°29' E 010°01'1313.0
2014-Nov-19 22:32N 43°38' E 009°48'1312.9
2014-Nov-19 21:32N 43°48' E 009°37'1313.0
2014-Nov-19 20:32N 43°58' E 009°25'1313.2
2014-Nov-19 19:32N 44°08' E 009°12'1312.7
2014-Nov-19 18:32N 44°17' E 009°01'9 9.5
2014-Nov-19 17:33N 44°24' E 008°52'0 0.0
2014-Nov-19 16:29N 44°24' E 008°52'0 0.0
2014-Nov-19 15:32N 44°24' E 008°52'0 0.0
2014-Nov-19 14:29N 44°24' E 008°52'0 0.0
2014-Nov-19 13:29N 44°24' E 008°52'0 0.0
2014-Nov-19 12:33N 44°24' E 008°52'0 0.0
2014-Nov-19 11:33N 44°24' E 008°52'0 0.0
2014-Nov-19 10:33N 44°24' E 008°52'0 0.0
2014-Nov-19 09:33N 44°24' E 008°52'0 0.2
2014-Nov-19 08:34N 44°24' E 008°52'0 0.0
2014-Nov-19 07:34N 44°24' E 008°52'3 2.8
2014-Nov-19 06:33N 44°23' E 008°55'1110.8
2014-Nov-19 05:34N 44°15' E 009°06'1212.3
2014-Nov-19 04:33N 44°06' E 009°17'1212.2
2014-Nov-19 03:33N 43°57' E 009°28'1212.0
2014-Nov-19 02:33N 43°48' E 009°39'1211.6
2014-Nov-19 01:33N 43°39' E 009°50'1111.0
2014-Nov-19 00:33N 43°31' E 010°00'1110.8
2014-Nov-18 23:33N 43°22' E 010°09'1110.5
2014-Nov-18 22:33N 43°13' E 010°15'205 7.8
2014-Nov-17 20:20N 40°49' E 013°32'1012.7
2014-Nov-17 19:33N 40°43' E 013°42'1313.0
2014-Nov-17 18:33N 40°35' E 013°56'1313.1
2014-Nov-17 17:33N 40°27' E 014°10'  
Track history (hours):
 
Tides and Currents Weather Stations Pressure Air Temp Water Temp Dewpoint Dewpoint Depression Visibility Wind Speed Wind Dir Waves Ship Positions

Ursa Minor

Last reported at 2014-Nov-27 16:28 UTC. Time now 2014-Nov-29 04:56 UTC.
Position N 40°28' E 014°05'.

Length 205 m; draft 8.4 m.

MMSI: 247082300.

Date/timePositionNaut miles runAvg speedWind from/ knotsBaromVisibWave heightAir tempDewpointWater temp
2014-Nov-27 16:28N 40°28' E 014°05'1213.2
2014-Nov-27 15:33N 40°35' E 013°52'1313.2
2014-Nov-27 14:33N 40°44' E 013°39'23313.0
2014-Nov-26 20:34N 43°31' E 009°59'1313.4
2014-Nov-26 19:33N 43°41' E 009°47'1313.0
2014-Nov-26 18:32N 43°51' E 009°34'1313.5
2014-Nov-26 17:32N 44°01' E 009°22'1313.2
2014-Nov-26 16:32N 44°11' E 009°10'1313.0
2014-Nov-26 15:32N 44°20' E 008°57'6 5.4
2014-Nov-26 14:31N 44°24' E 008°52'0 0.0
2014-Nov-26 13:31N 44°24' E 008°52'0 0.0
2014-Nov-26 11:30N 44°24' E 008°52'0 0.0
2014-Nov-26 10:27N 44°24' E 008°52'0 0.0
2014-Nov-26 09:33N 44°24' E 008°52'0 0.2
2014-Nov-26 08:34N 44°24' E 008°52'1 1.0
2014-Nov-26 07:34N 44°24' E 008°53'10 9.7
2014-Nov-26 06:33N 44°17' E 009°03'1313.4
2014-Nov-26 05:33N 44°07' E 009°15'1313.4
2014-Nov-26 04:34N 43°57' E 009°28'1313.3
2014-Nov-26 03:34N 43°47' E 009°40'1413.6
2014-Nov-26 02:33N 43°36' E 009°50'1312.9
2014-Nov-26 01:33N 43°27' E 010°04'1312.5
2014-Nov-26 00:34N 43°16' E 010°12'19513.0
2014-Nov-25 09:33N 40°57' E 013°17'1413.3
2014-Nov-25 08:32N 40°49' E 013°31'1413.6
2014-Nov-25 07:31N 40°40' E 013°45'1313.5
2014-Nov-25 06:34N 40°32' E 013°58'16212.4
2014-Nov-24 17:29N 38°09' E 015°37'  
2014-Nov-21 07:28N 38°08' E 015°35'1212.1
2014-Nov-21 06:30N 38°19' E 015°40'14913.4
2014-Nov-20 19:26N 40°28' E 014°04'1112.8
2014-Nov-20 18:33N 40°35' E 013°52'1312.9
2014-Nov-20 17:33N 40°44' E 013°39'22412.9
2014-Nov-20 00:10N 43°22' E 010°07'813.2
2014-Nov-19 23:32N 43°29' E 010°01'1313.0
2014-Nov-19 22:32N 43°38' E 009°48'1312.9
2014-Nov-19 21:32N 43°48' E 009°37'1313.0
2014-Nov-19 20:32N 43°58' E 009°25'1313.2
2014-Nov-19 19:32N 44°08' E 009°12'1312.7
2014-Nov-19 18:32N 44°17' E 009°01'9 9.5
2014-Nov-19 17:33N 44°24' E 008°52'0 0.0
2014-Nov-19 16:29N 44°24' E 008°52'0 0.0
2014-Nov-19 15:32N 44°24' E 008°52'0 0.0
2014-Nov-19 14:29N 44°24' E 008°52'0 0.0
2014-Nov-19 13:29N 44°24' E 008°52'0 0.0
2014-Nov-19 12:33N 44°24' E 008°52'0 0.0
2014-Nov-19 11:33N 44°24' E 008°52'0 0.0
2014-Nov-19 10:33N 44°24' E 008°52'0 0.0
2014-Nov-19 09:33N 44°24' E 008°52'0 0.2
2014-Nov-19 08:34N 44°24' E 008°52'0 0.0
2014-Nov-19 07:34N 44°24' E 008°52'3 2.8
2014-Nov-19 06:33N 44°23' E 008°55'1110.8
2014-Nov-19 05:34N 44°15' E 009°06'1212.3
2014-Nov-19 04:33N 44°06' E 009°17'1212.2
2014-Nov-19 03:33N 43°57' E 009°28'1212.0
2014-Nov-19 02:33N 43°48' E 009°39'1211.6
2014-Nov-19 01:33N 43°39' E 009°50'1111.0
2014-Nov-19 00:33N 43°31' E 010°00'1110.8
2014-Nov-18 23:33N 43°22' E 010°09'1110.5
2014-Nov-18 22:33N 43°13' E 010°15'205 7.8
2014-Nov-17 20:20N 40°49' E 013°32'1012.7
2014-Nov-17 19:33N 40°43' E 013°42'1313.0
2014-Nov-17 18:33N 40°35' E 013°56'1313.1
2014-Nov-17 17:33N 40°27' E 014°10'  

Dump ship's entire track history